createdAt,value
2022-10-01T00:01:22.176Z,5.40
2022-10-01T00:04:25.194Z,5.73
2022-10-01T00:07:27.714Z,5.30
2022-10-01T00:10:31.510Z,5.45
2022-10-01T00:13:34.044Z,6.03
2022-10-01T00:16:36.904Z,5.75
2022-10-01T00:19:39.528Z,6.27
2022-10-01T00:22:42.306Z,6.43
2022-10-01T00:25:44.821Z,5.72
2022-10-01T00:28:49.320Z,7.10
2022-10-01T00:31:52.139Z,7.07
2022-10-01T00:34:55.124Z,6.53
2022-10-01T00:37:58.020Z,6.32
2022-10-01T00:41:01.419Z,5.93
2022-10-01T00:44:36.573Z,6.53
2022-10-01T00:47:43.655Z,7.07
2022-10-01T00:50:49.105Z,7.17
2022-10-01T00:53:53.641Z,6.97
2022-10-01T00:56:58.009Z,7.18
2022-10-01T01:00:04.447Z,6.90
2022-10-01T01:03:07.794Z,7.57
2022-10-01T01:06:10.790Z,7.13
2022-10-01T01:09:13.396Z,7.07
2022-10-01T01:12:35.003Z,7.28
2022-10-01T01:15:55.543Z,6.30
2022-10-01T01:19:05.204Z,5.95
2022-10-01T01:22:08.801Z,6.23
2022-10-01T01:25:24.368Z,5.78
2022-10-01T01:28:31.794Z,6.50
2022-10-01T01:31:39.266Z,5.93
2022-10-01T01:34:45.624Z,5.82
2022-10-01T01:37:53.601Z,6.33
2022-10-01T01:40:59.169Z,5.72
2022-10-01T01:44:03.896Z,5.78
2022-10-01T01:47:07.459Z,5.95
2022-10-01T01:50:11.945Z,6.80
2022-10-01T01:53:15.396Z,5.70
2022-10-01T01:56:18.240Z,7.00
2022-10-01T01:59:20.916Z,6.85
2022-10-01T02:02:27.378Z,6.30
2022-10-01T02:05:38.102Z,6.37
2022-10-01T02:08:52.286Z,5.97
2022-10-01T02:12:20.229Z,5.93
2022-10-01T02:15:48.222Z,6.40
2022-10-01T02:19:01.297Z,6.00
2022-10-01T02:22:11.114Z,7.43
2022-10-01T02:25:17.594Z,6.27
2022-10-01T02:28:23.192Z,5.90
2022-10-01T02:31:28.478Z,6.65
2022-10-01T02:34:31.756Z,10.40
2022-10-01T02:37:36.414Z,5.87
2022-10-01T02:40:41.732Z,5.97
2022-10-01T02:43:51.734Z,6.57
2022-10-01T02:47:14.239Z,6.97
2022-10-01T02:50:17.352Z,7.07
2022-10-01T02:53:27.798Z,8.00
2022-10-01T02:56:50.328Z,7.80
2022-10-01T03:00:02.080Z,7.78
2022-10-01T03:03:05.680Z,8.40
2022-10-01T03:06:08.298Z,9.82
2022-10-01T03:09:11.513Z,9.23
2022-10-01T03:12:14.512Z,10.53
2022-10-01T03:15:21.585Z,9.68
2022-10-01T03:18:24.105Z,9.25
2022-10-01T03:21:27.029Z,10.98
2022-10-01T03:24:29.745Z,11.30
2022-10-01T03:27:32.570Z,9.80
2022-10-01T03:30:35.077Z,11.27
2022-10-01T03:33:37.993Z,11.20
2022-10-01T03:36:40.492Z,10.93
2022-10-01T03:39:43.305Z,9.60
2022-10-01T03:42:45.985Z,9.10
2022-10-01T03:45:48.785Z,9.77
2022-10-01T03:48:52.873Z,8.82
2022-10-01T03:51:55.817Z,9.65
2022-10-01T03:54:58.371Z,8.75
2022-10-01T03:58:01.457Z,8.57
2022-10-01T04:01:03.986Z,8.23
2022-10-01T04:04:07.235Z,8.40
2022-10-01T04:07:09.750Z,8.00
2022-10-01T04:10:12.671Z,8.40
2022-10-01T04:13:15.452Z,7.87
2022-10-01T04:16:18.449Z,8.20
2022-10-01T04:19:21.101Z,7.87
2022-10-01T04:22:23.880Z,8.77
2022-10-01T04:25:27.161Z,8.95
2022-10-01T04:28:31.269Z,7.77
2022-10-01T04:31:35.593Z,7.93
2022-10-01T04:34:53.972Z,7.95
2022-10-01T04:38:03.497Z,7.18
2022-10-01T04:41:06.707Z,8.82
2022-10-01T04:44:10.324Z,8.27
2022-10-01T04:47:13.247Z,7.75
2022-10-01T04:50:17.131Z,8.80
2022-10-01T04:53:21.252Z,8.48
2022-10-01T04:56:23.881Z,8.70
2022-10-01T04:59:26.955Z,8.47
2022-10-01T05:02:29.869Z,8.65
2022-10-01T05:05:34.986Z,9.38
2022-10-01T05:08:38.239Z,8.40
2022-10-01T05:11:41.182Z,8.63
2022-10-01T05:14:43.759Z,8.23
2022-10-01T05:17:47.117Z,8.05
2022-10-01T05:20:49.596Z,8.57
2022-10-01T05:23:52.538Z,8.38
2022-10-01T05:26:55.139Z,10.70
2022-10-01T05:29:58.039Z,7.83
2022-10-01T05:33:02.444Z,9.45
2022-10-01T05:36:06.918Z,8.18
2022-10-01T05:39:09.702Z,7.32
2022-10-01T05:42:12.526Z,7.72
2022-10-01T05:45:15.300Z,6.30
2022-10-01T05:48:18.119Z,7.25
2022-10-01T05:51:20.596Z,8.88
2022-10-01T05:54:24.196Z,7.00
2022-10-01T05:57:26.675Z,6.97
2022-10-01T06:00:30.457Z,5.77
2022-10-01T06:03:33.232Z,6.72
2022-10-01T06:06:35.691Z,6.72
2022-10-01T06:09:38.504Z,6.32
2022-10-01T06:12:40.957Z,6.18
2022-10-01T06:15:45.339Z,5.77
2022-10-01T06:18:49.067Z,6.15
2022-10-01T06:21:51.967Z,4.28
2022-10-01T06:24:56.689Z,4.32
2022-10-01T06:28:00.079Z,3.85
2022-10-01T06:31:03.279Z,4.03
2022-10-01T06:34:06.016Z,3.92
2022-10-01T06:37:08.508Z,3.75
2022-10-01T06:40:11.267Z,3.33
2022-10-01T06:43:13.772Z,3.65
2022-10-01T06:46:16.587Z,3.60
2022-10-01T06:49:20.649Z,4.05
2022-10-01T06:52:42.093Z,4.12
2022-10-01T06:55:45.445Z,4.57
2022-10-01T06:58:48.255Z,6.37
2022-10-01T07:01:56.053Z,5.90
2022-10-01T07:04:59.417Z,5.75
2022-10-01T07:08:02.147Z,5.40
2022-10-01T07:11:05.203Z,4.37
2022-10-01T07:14:08.602Z,4.82
2022-10-01T07:17:11.472Z,4.33
2022-10-01T07:20:14.976Z,4.70
2022-10-01T07:23:18.020Z,4.55
2022-10-01T07:26:20.518Z,5.00
2022-10-01T07:29:24.018Z,4.43
2022-10-01T07:32:27.436Z,4.90
2022-10-01T07:35:30.197Z,4.72
2022-10-01T07:38:35.580Z,5.78
2022-10-01T07:41:38.620Z,5.25
2022-10-01T07:44:41.605Z,5.20
2022-10-01T07:47:54.952Z,5.70
2022-10-01T07:50:58.026Z,6.45
2022-10-01T07:54:00.772Z,7.15
2022-10-01T07:57:03.381Z,7.75
2022-10-01T08:00:06.992Z,8.18
2022-10-01T08:03:14.559Z,7.67
2022-10-01T08:06:23.332Z,10.15
2022-10-01T08:09:27.989Z,8.35
2022-10-01T08:12:33.729Z,7.35
2022-10-01T08:15:36.196Z,7.90
2022-10-01T08:18:40.697Z,6.90
2022-10-01T08:21:43.245Z,7.93
2022-10-01T08:24:45.935Z,7.05
2022-10-01T08:27:48.509Z,7.80
2022-10-01T08:30:51.830Z,7.60
2022-10-01T08:33:54.345Z,7.87
2022-10-01T08:36:57.100Z,8.82
2022-10-01T08:39:59.561Z,8.63
2022-10-01T08:43:38.480Z,9.75
2022-10-01T08:46:41.638Z,8.77
2022-10-01T08:49:57.710Z,9.07
2022-10-01T08:53:02.931Z,9.38
2022-10-01T08:56:28.851Z,8.63
2022-10-01T08:59:39.016Z,8.88
2022-10-01T09:02:43.480Z,8.10
2022-10-01T09:06:01.399Z,8.05
2022-10-01T09:09:22.523Z,8.23
2022-10-01T09:12:34.243Z,5.90
2022-10-01T09:15:41.458Z,8.25
2022-10-01T09:19:00.467Z,8.30
2022-10-01T09:22:27.859Z,8.55
2022-10-01T09:25:31.193Z,7.65
2022-10-01T09:28:35.406Z,8.45
2022-10-01T09:31:41.565Z,9.07
2022-10-01T09:34:45.316Z,8.43
2022-10-01T09:37:58.015Z,8.93
2022-10-01T09:41:00.978Z,8.30
2022-10-01T09:44:03.927Z,9.35
2022-10-01T09:47:17.654Z,9.75
2022-10-01T09:50:50.460Z,9.20
2022-10-01T09:53:53.089Z,10.13
2022-10-01T09:56:59.849Z,9.77
2022-10-01T10:00:10.863Z,9.25
2022-10-01T10:03:30.666Z,9.13
2022-10-01T10:06:33.871Z,9.17
2022-10-01T10:09:37.220Z,10.43
2022-10-01T10:12:40.624Z,10.15
2022-10-01T10:15:50.424Z,9.93
2022-10-01T10:19:02.942Z,10.05
2022-10-01T10:22:32.158Z,11.10
2022-10-01T10:25:35.572Z,10.77
2022-10-01T10:28:43.897Z,12.65
2022-10-01T10:31:47.164Z,11.70
2022-10-01T10:34:50.464Z,12.45
2022-10-01T10:37:55.293Z,11.53
2022-10-01T10:40:58.195Z,9.90
2022-10-01T10:44:04.787Z,10.38
2022-10-01T10:47:11.362Z,10.00
2022-10-01T10:50:36.640Z,9.45
2022-10-01T10:53:44.793Z,7.43
2022-10-01T10:57:10.583Z,6.55
2022-10-01T11:00:19.103Z,6.15
2022-10-01T11:03:24.500Z,6.97
2022-10-01T11:06:27.634Z,5.90
2022-10-01T11:09:37.933Z,5.27
2022-10-01T11:13:03.906Z,4.10
2022-10-01T11:16:34.530Z,4.20
2022-10-01T11:19:59.085Z,4.20
2022-10-01T11:23:29.229Z,3.92
2022-10-01T11:26:51.686Z,3.80
2022-10-01T11:30:04.402Z,3.95
2022-10-01T11:33:19.649Z,4.20
2022-10-01T11:36:32.544Z,3.72
2022-10-01T11:39:35.822Z,3.95
2022-10-01T11:42:39.837Z,4.13
2022-10-01T11:45:46.428Z,4.22
2022-10-01T11:48:57.227Z,4.30
2022-10-01T11:52:12.928Z,4.00
2022-10-01T11:55:44.923Z,5.10
2022-10-01T11:58:54.559Z,4.70
2022-10-01T12:02:20.503Z,4.45
2022-10-01T12:05:27.021Z,4.72
2022-10-01T12:08:31.976Z,5.15
2022-10-01T12:11:44.161Z,5.55
2022-10-01T12:14:54.383Z,5.60
2022-10-01T12:18:13.022Z,5.82
2022-10-01T12:21:44.920Z,5.70
2022-10-01T12:24:47.807Z,5.43
2022-10-01T12:28:02.588Z,5.65
2022-10-01T12:31:43.791Z,6.10
2022-10-01T12:34:56.562Z,5.65
2022-10-01T12:38:05.788Z,6.05
2022-10-01T12:41:45.540Z,6.82
2022-10-01T12:44:54.330Z,6.30
2022-10-01T12:48:15.668Z,6.43
2022-10-01T12:51:31.035Z,7.37
2022-10-01T12:55:11.022Z,7.07
2022-10-01T12:58:40.483Z,7.72
2022-10-01T13:01:46.053Z,7.10
2022-10-01T13:04:52.034Z,7.23
2022-10-01T13:08:25.068Z,6.30
2022-10-01T13:11:35.130Z,6.90
2022-10-01T13:14:38.236Z,5.85
2022-10-01T13:18:08.524Z,6.50
2022-10-01T13:21:48.156Z,6.27
2022-10-01T13:25:01.336Z,6.15
2022-10-01T13:28:20.105Z,6.37
2022-10-01T13:31:35.227Z,6.10
2022-10-01T13:34:42.956Z,5.37
2022-10-01T13:37:45.665Z,6.40
2022-10-01T13:40:57.785Z,6.07
2022-10-01T13:44:11.020Z,6.28
2022-10-01T13:47:19.068Z,6.10
2022-10-01T13:50:25.407Z,5.72
2022-10-01T13:53:29.799Z,5.90
2022-10-01T13:56:37.869Z,5.85
2022-10-01T13:59:40.728Z,5.30
2022-10-01T14:02:59.977Z,5.22
2022-10-01T14:06:05.602Z,5.15
2022-10-01T14:09:19.202Z,4.30
2022-10-01T14:12:43.540Z,3.28
2022-10-01T14:16:00.609Z,3.65
2022-10-01T14:19:05.273Z,3.30
2022-10-01T14:22:35.935Z,3.90
2022-10-01T14:25:56.003Z,3.40
2022-10-01T14:29:31.235Z,3.62
2022-10-01T14:33:06.133Z,3.90
2022-10-01T14:36:28.596Z,5.10
2022-10-01T14:39:31.475Z,8.18
2022-10-01T14:42:34.074Z,9.17
2022-10-01T14:45:36.875Z,6.53
2022-10-01T14:48:40.419Z,5.15
2022-10-01T14:51:51.526Z,3.97
2022-10-01T14:54:59.155Z,4.22
2022-10-01T14:58:02.111Z,5.57
2022-10-01T15:01:05.495Z,6.50
2022-10-01T15:04:21.373Z,6.90
2022-10-01T15:07:25.725Z,7.30
2022-10-01T15:10:30.859Z,6.07
2022-10-01T15:13:38.634Z,6.70
2022-10-01T15:16:41.656Z,6.70
2022-10-01T15:19:47.229Z,6.28
2022-10-01T15:22:59.037Z,6.70
2022-10-01T15:26:06.275Z,7.53
2022-10-01T15:29:13.938Z,6.90
2022-10-01T15:32:19.224Z,7.65
2022-10-01T15:35:22.917Z,8.02
2022-10-01T15:38:27.319Z,8.02
2022-10-01T15:41:39.894Z,9.50
2022-10-01T15:44:49.962Z,10.50
2022-10-01T15:47:56.920Z,11.80
2022-10-01T15:51:01.960Z,11.00
2022-10-01T15:54:08.331Z,10.05
2022-10-01T15:57:22.103Z,11.10
2022-10-01T16:00:29.968Z,10.20
2022-10-01T16:03:42.386Z,10.10
2022-10-01T16:06:49.981Z,9.52
2022-10-01T16:09:56.828Z,9.25
2022-10-01T16:12:59.947Z,9.10
2022-10-01T16:16:20.268Z,8.37
2022-10-01T16:19:23.181Z,9.05
2022-10-01T16:22:35.582Z,8.38
2022-10-01T16:25:44.092Z,6.87
2022-10-01T16:28:46.919Z,8.50
2022-10-01T16:31:49.850Z,7.77
2022-10-01T16:34:52.734Z,6.32
2022-10-01T16:37:56.888Z,6.47
2022-10-01T16:41:00.342Z,6.85
2022-10-01T16:44:03.643Z,6.25
2022-10-01T16:47:06.535Z,6.10
2022-10-01T16:50:14.724Z,6.30
2022-10-01T16:53:18.422Z,5.95
2022-10-01T16:56:26.297Z,5.93
2022-10-01T16:59:33.878Z,5.97
2022-10-01T17:02:38.913Z,5.73
2022-10-01T17:05:42.084Z,5.90
2022-10-01T17:08:44.609Z,5.70
2022-10-01T17:11:49.035Z,5.68
2022-10-01T17:14:56.359Z,5.37
2022-10-01T17:17:59.633Z,6.53
2022-10-01T17:21:03.900Z,5.68
2022-10-01T17:24:10.671Z,4.80
2022-10-01T17:27:13.255Z,5.53
2022-10-01T17:30:16.602Z,6.25
2022-10-01T17:33:19.629Z,4.43
2022-10-01T17:36:22.431Z,3.05
2022-10-01T17:39:25.113Z,2.28
2022-10-01T17:42:27.915Z,1.95
2022-10-01T17:45:30.423Z,1.65
2022-10-01T17:48:33.333Z,1.40
2022-10-01T17:51:35.953Z,1.35
2022-10-01T17:54:38.946Z,1.40
2022-10-01T17:57:41.574Z,1.10
2022-10-01T18:00:44.449Z,1.00
2022-10-01T18:03:47.557Z,1.10
2022-10-01T18:06:52.205Z,0.93
2022-10-01T18:09:55.099Z,1.10
2022-10-01T18:12:57.678Z,1.00
2022-10-01T18:16:06.450Z,1.40
2022-10-01T18:22:35.264Z,1.62
2022-10-01T18:25:37.770Z,1.75
2022-10-01T18:28:40.750Z,1.98
2022-10-01T18:31:50.137Z,2.10
2022-10-01T18:35:01.410Z,2.57
2022-10-01T18:38:20.746Z,2.53
2022-10-01T18:41:35.277Z,2.83
2022-10-01T18:44:37.790Z,2.95
2022-10-01T18:47:50.198Z,3.85
2022-10-01T18:51:06.010Z,4.00
2022-10-01T18:54:11.736Z,4.25
2022-10-01T18:57:38.171Z,4.32
2022-10-01T19:00:56.050Z,4.60
2022-10-01T19:04:06.913Z,4.57
2022-10-01T19:07:31.196Z,5.47
2022-10-01T19:10:44.025Z,5.25
2022-10-01T19:14:08.658Z,5.35
2022-10-01T19:17:17.887Z,5.95
2022-10-01T19:21:09.245Z,5.57
2022-10-01T19:24:20.793Z,6.27
2022-10-01T19:27:26.632Z,6.55
2022-10-01T19:30:38.184Z,6.18
2022-10-01T19:33:49.042Z,6.50
2022-10-01T19:37:02.138Z,5.55
2022-10-01T19:40:33.733Z,6.50
2022-10-01T19:43:54.391Z,6.10
2022-10-01T19:47:15.751Z,6.12
2022-10-01T19:50:21.513Z,6.70
2022-10-01T19:53:29.650Z,6.97
2022-10-01T19:56:34.852Z,8.70
2022-10-01T19:59:38.145Z,8.77
2022-10-01T20:02:57.834Z,8.68
2022-10-01T20:06:09.053Z,9.05
2022-10-01T20:09:24.933Z,9.00
2022-10-01T20:13:01.943Z,8.60
2022-10-01T20:16:20.515Z,8.38
2022-10-01T20:19:38.567Z,8.23
2022-10-01T20:23:04.378Z,6.60
2022-10-01T20:26:28.549Z,5.75
2022-10-01T20:29:43.455Z,5.00
2022-10-01T20:33:10.328Z,4.40
2022-10-01T20:36:27.963Z,3.95
2022-10-01T20:39:44.104Z,3.53
2022-10-01T20:42:49.228Z,4.53
2022-10-01T20:45:53.691Z,4.13
2022-10-01T20:49:23.360Z,4.35
2022-10-01T20:52:31.566Z,5.03
2022-10-01T20:55:41.668Z,4.82
2022-10-01T20:58:49.110Z,4.97
2022-10-01T21:02:23.761Z,3.73
2022-10-01T21:05:37.971Z,3.92
2022-10-01T21:08:50.510Z,3.30
2022-10-01T21:12:02.689Z,3.40
2022-10-01T21:15:07.426Z,3.70
2022-10-01T21:18:31.404Z,3.40
2022-10-01T21:21:55.188Z,3.50
2022-10-01T21:25:16.992Z,3.40
2022-10-01T21:28:43.819Z,2.97
2022-10-01T21:32:30.293Z,2.78
2022-10-01T21:35:51.109Z,2.67
2022-10-01T21:39:13.090Z,2.70
2022-10-01T21:42:19.900Z,3.20
2022-10-01T21:45:23.346Z,2.35
2022-10-01T21:48:34.889Z,2.47
2022-10-01T21:51:41.618Z,2.67
2022-10-01T21:54:50.215Z,2.35
2022-10-01T21:58:02.043Z,2.20
2022-10-01T22:01:19.798Z,1.90
2022-10-01T22:04:25.691Z,2.10
2022-10-01T22:07:33.097Z,1.70
2022-10-01T22:10:43.163Z,2.10
2022-10-01T22:14:16.547Z,1.80
2022-10-01T22:17:22.668Z,1.87
2022-10-01T22:20:29.579Z,1.62
2022-10-01T22:23:37.055Z,1.50
2022-10-01T22:26:44.586Z,1.42
2022-10-01T22:29:57.466Z,1.50
2022-10-01T22:33:07.790Z,1.80
2022-10-01T22:36:13.830Z,1.40
2022-10-01T22:39:22.502Z,1.60
2022-10-01T22:42:39.141Z,1.80
2022-10-01T22:46:07.719Z,1.67
2022-10-01T22:49:10.591Z,1.98
2022-10-01T22:52:32.523Z,1.80
2022-10-01T22:55:55.738Z,1.93
2022-10-01T22:59:17.117Z,1.42
2022-10-01T23:02:34.061Z,1.30
2022-10-01T23:05:58.139Z,1.55
2022-10-01T23:09:40.654Z,1.42
2022-10-01T23:12:46.203Z,1.33
2022-10-01T23:16:00.419Z,1.27
2022-10-01T23:19:28.580Z,1.10
2022-10-01T23:22:40.700Z,1.40
2022-10-01T23:26:15.346Z,1.00
2022-10-01T23:29:18.261Z,0.90
2022-10-01T23:32:53.581Z,1.48
2022-10-01T23:36:18.535Z,0.95
2022-10-01T23:39:23.993Z,1.00
2022-10-01T23:42:37.091Z,1.20
2022-10-01T23:46:06.278Z,1.00
2022-10-01T23:49:16.844Z,1.00
2022-10-01T23:52:26.379Z,0.95
2022-10-01T23:56:03.839Z,0.90
2022-10-01T23:59:11.164Z,1.00
